Time;durP1;ratioP1;P1;durP2;ratioP2;P2;SDS_P1;SDS_P2;PMS_P1;PMS_P2;Temp;Humidity;BMP_temperature;BMP_pressure;BME280_temperature;BME280_humidity;BME280_pressure;Samples;Min_cycle;Max_cycle;Signal;HPM_P1;HPM_P2
2022/12/14 00:04:23;;;;;;;31.90;22.80;;;;;;;-5.52;91.89;99129.11;420643;1283;143440;-66
2022/12/14 00:14:29;;;;;;;33.00;23.10;;;;;;;-5.68;92.04;99138.92;423599;1278;143801;-65
2022/12/14 00:24:34;;;;;;;35.30;24.90;;;;;;;-5.70;92.15;99136.04;420530;1284;150545;-66
2022/12/14 00:34:38;;;;;;;;;;;;;;;-5.81;92.08;99137.98;431794;1285;142949;-66
2022/12/14 00:44:44;;;;;;;34.90;25.10;;;;;;;-5.97;92.00;99137.86;435953;1286;130299;-66
2022/12/14 00:54:48;;;;;;;;;;;;;;;-6.02;91.95;99130.74;434831;1276;143232;-66
2022/12/14 01:04:53;;;;;;;32.30;22.60;;;;;;;-6.01;92.00;99122.56;435789;1277;129583;-66
2022/12/14 01:14:57;;;;;;;;;;;;;;;-6.06;91.98;99111.85;434348;1276;143534;-66
2022/12/14 01:25:03;;;;;;;34.70;26.50;;;;;;;-6.08;92.04;99106.41;435781;1284;129315;-66
2022/12/14 01:35:09;;;;;;;33.50;23.50;;;;;;;-6.18;91.92;99111.05;435641;1277;142236;-67
2022/12/14 01:45:21;;;;;;;40.20;27.10;;;;;;;-6.23;91.92;99107.31;434958;1283;143192;-67
2022/12/14 01:55:31;;;;;;;35.40;23.60;;;;;;;-6.22;91.91;99096.24;435847;1282;144081;-67
2022/12/14 02:05:42;;;;;;;30.00;21.10;;;;;;;-6.29;91.76;99092.67;435924;1283;143542;-67
2022/12/14 02:15:48;;;;;;;25.90;18.90;;;;;;;-6.44;91.63;99089.48;433287;1284;142605;-66
2022/12/14 02:26:33;;;;;;;24.70;18.70;;;;;;;-6.61;91.66;99092.44;432626;1283;144076;-67
2022/12/14 02:36:56;;;;;;;22.60;16.10;;;;;;;-6.77;91.64;99084.64;434897;1283;142230;-66
2022/12/14 02:47:33;;;;;;;26.40;19.70;;;;;;;-6.91;91.52;99091.30;435652;1276;142840;-66
2022/12/14 02:57:45;;;;;;;24.20;16.50;;;;;;;-7.03;91.08;99083.83;434985;1282;143868;-66
2022/12/14 03:07:54;;;;;;;25.80;18.50;;;;;;;-7.08;91.05;99090.11;428944;1276;146297;-65
2022/12/14 03:18:05;;;;;;;24.80;18.40;;;;;;;-7.12;91.22;99099.48;434953;1277;143055;-66
2022/12/14 03:28:16;;;;;;;27.40;19.20;;;;;;;-7.16;91.38;99094.88;435688;1283;143178;-67
2022/12/14 03:38:30;;;;;;;30.30;22.80;;;;;;;-7.31;91.29;99087.90;435661;1276;143756;-66
2022/12/14 03:48:40;;;;;;;40.70;25.90;;;;;;;-7.41;91.26;99090.45;434916;1275;143677;-66
2022/12/14 03:58:54;;;;;;;28.60;22.40;;;;;;;-7.59;90.78;99083.11;435588;1285;143428;-66
2022/12/14 04:09:10;;;;;;;27.80;22.10;;;;;;;-8.00;90.44;99080.46;434816;1277;143159;-66
2022/12/14 04:19:20;;;;;;;22.90;17.20;;;;;;;-8.52;90.35;99068.23;435707;1284;143147;-67
2022/12/14 04:39:57;;;;;;;33.00;24.40;;;;;;;-8.84;91.25;99057.71;434860;1276;187243;-67
2022/12/14 04:50:08;;;;;;;36.80;24.20;;;;;;;-8.98;90.84;99062.20;429190;1275;147307;-67
2022/12/14 05:00:15;;;;;;;42.60;29.60;;;;;;;-9.40;90.59;99055.96;434888;1282;185404;-66
2022/12/14 05:10:30;;;;;;;42.10;28.40;;;;;;;-9.81;90.48;99047.98;435613;1284;143405;-65
2022/12/14 05:20:35;;;;;;;43.20;30.40;;;;;;;-10.07;90.90;99044.48;435601;1276;143475;-66
2022/12/14 05:30:41;;;;;;;38.30;30.60;;;;;;;-10.28;91.11;99042.25;434630;1283;144586;-66
2022/12/14 05:40:53;;;;;;;42.80;29.40;;;;;;;-10.43;91.20;99037.68;435544;1276;144295;-67
2022/12/14 05:51:06;;;;;;;50.00;33.50;;;;;;;-10.62;91.53;99034.94;434794;1283;144165;-66
2022/12/14 06:01:12;;;;;;;55.10;40.70;;;;;;;-10.79;91.09;99031.02;435400;1284;142828;-66
2022/12/14 06:11:46;;;;;;;63.60;42.90;;;;;;;-11.09;90.63;99037.17;435658;1284;142739;-68
2022/12/14 06:21:51;;;;;;;73.60;45.40;;;;;;;-11.40;90.41;99044.33;434916;1283;143585;-66
2022/12/14 06:31:57;;;;;;;70.30;45.40;;;;;;;-11.65;90.32;99044.42;435522;1277;145061;-66
2022/12/14 06:42:02;;;;;;;66.20;47.30;;;;;;;-11.85;90.39;99042.58;434800;1283;143439;-66
2022/12/14 06:52:08;;;;;;;67.00;44.20;;;;;;;-11.96;90.48;99040.52;435382;1278;143475;-66
2022/12/14 07:02:13;;;;;;;64.70;44.60;;;;;;;-12.03;90.66;99037.38;435476;1283;143656;-66
2022/12/14 07:12:19;;;;;;;67.50;47.90;;;;;;;-12.03;90.38;99035.87;434865;1290;143701;-66
2022/12/14 07:22:25;;;;;;;60.70;43.70;;;;;;;-11.81;90.50;99033.85;435703;1284;143138;-66
2022/12/14 07:32:30;;;;;;;57.50;42.30;;;;;;;-11.27;90.55;99023.39;435777;1283;144418;-65
2022/12/14 07:42:36;;;;;;;58.90;41.00;;;;;;;-10.63;90.25;99019.34;435097;1283;143534;-66
2022/12/14 07:52:41;;;;;;;52.20;35.40;;;;;;;-9.51;89.63;99008.19;435589;1283;143647;-66
2022/12/14 08:02:47;;;;;;;47.30;31.70;;;;;;;-7.27;87.66;99009.94;435714;1277;143493;-65
2022/12/14 08:12:52;;;;;;;48.90;31.70;;;;;;;-5.32;85.58;99001.15;435101;1283;143926;-65
2022/12/14 08:22:58;;;;;;;48.60;33.90;;;;;;;-3.80;82.64;98998.19;435705;1285;151753;-64
2022/12/14 08:33:24;;;;;;;46.20;33.50;;;;;;;-2.78;80.23;98987.60;435300;1283;143711;-65
2022/12/14 08:43:30;;;;;;;43.60;32.60;;;;;;;-1.92;78.60;98982.39;436201;1283;142014;-65
2022/12/14 08:53:37;;;;;;;38.10;30.90;;;;;;;-1.11;76.34;98967.02;436278;1288;141447;-65
2022/12/14 09:03:44;;;;;;;37.60;30.20;;;;;;;-0.36;74.82;98954.66;435401;1282;142022;-66
2022/12/14 09:13:52;;;;;;;45.90;34.80;;;;;;;0.49;73.70;98941.89;436200;1277;142497;-66
2022/12/14 09:23:58;;;;;;;42.90;33.30;;;;;;;0.54;71.50;98937.09;435436;1280;141850;-66
2022/12/14 09:34:04;;;;;;;49.50;36.00;;;;;;;-1.37;70.55;98934.36;436379;1283;142591;-65
2022/12/14 09:44:17;;;;;;;47.60;33.00;;;;;;;-4.23;72.41;98934.65;436454;1280;181880;-66
2022/12/14 09:54:28;;;;;;;46.30;30.20;;;;;;;-5.38;74.20;98922.75;427972;1281;142252;-66
2022/12/14 10:04:46;;;;;;;48.60;32.90;;;;;;;-6.27;75.27;98915.48;436458;1282;142751;-66
2022/12/14 10:15:24;;;;;;;46.70;33.00;;;;;;;-6.99;76.31;98904.11;435693;1284;142450;-66
2022/12/14 10:25:33;;;;;;;53.80;33.80;;;;;;;-7.32;77.25;98891.11;436427;1281;144496;-66
2022/12/14 10:35:49;;;;;;;45.70;29.80;;;;;;;-7.53;77.70;98872.47;436369;1283;143168;-66
2022/12/14 10:46:00;;;;;;;44.60;30.00;;;;;;;-7.68;78.35;98861.79;435649;1282;142183;-66
2022/12/14 10:56:11;;;;;;;45.60;32.10;;;;;;;-7.63;78.76;98843.08;436385;1280;143698;-65
2022/12/14 11:06:19;;;;;;;47.70;31.90;;;;;;;-7.57;79.07;98829.12;433523;1282;143217;-65
2022/12/14 11:16:35;;;;;;;44.10;32.00;;;;;;;-7.46;79.47;98814.47;436410;1284;142757;-65
2022/12/14 11:27:05;;;;;;;46.80;33.10;;;;;;;-7.41;79.58;98803.73;435729;1283;160211;-65
2022/12/14 11:37:20;;;;;;;45.60;33.00;;;;;;;-7.41;79.88;98793.02;436423;1283;143686;-66
2022/12/14 11:47:27;;;;;;;44.50;31.30;;;;;;;-7.36;79.96;98774.64;432042;1280;146058;-66
2022/12/14 11:57:35;;;;;;;48.20;31.50;;;;;;;-7.29;80.13;98765.77;435668;1289;143711;-66
2022/12/14 12:07:43;;;;;;;46.70;31.90;;;;;;;-7.28;80.23;98761.52;431252;1289;143670;-66
2022/12/14 12:17:53;;;;;;;43.40;30.10;;;;;;;-7.34;80.31;98751.66;436431;1285;145104;-66
2022/12/14 12:28:05;;;;;;;41.70;29.30;;;;;;;-7.40;80.61;98732.83;435859;1283;157555;-66
2022/12/14 12:38:18;;;;;;;42.70;29.30;;;;;;;-7.27;80.81;98722.21;436377;1282;143079;-67
2022/12/14 12:48:27;;;;;;;43.40;29.20;;;;;;;-7.13;80.98;98695.09;435664;1284;143350;-68
2022/12/14 12:58:36;;;;;;;47.50;32.50;;;;;;;-7.11;80.71;98678.56;436381;1288;141449;-67
2022/12/14 13:08:54;;;;;;;39.30;27.20;;;;;;;-7.06;80.53;98676.83;436408;1279;143633;-66
2022/12/14 13:19:09;;;;;;;42.00;29.20;;;;;;;-7.20;80.47;98669.10;435971;1284;209438;-66
2022/12/14 13:29:49;;;;;;;47.20;32.80;;;;;;;-7.40;80.84;98658.19;436458;1287;142922;-67
2022/12/14 13:40:26;;;;;;;41.60;28.90;;;;;;;-7.69;80.94;98637.77;435649;1284;143332;-67
2022/12/14 13:50:36;;;;;;;42.80;30.60;;;;;;;-8.00;81.58;98621.44;436382;1279;143294;-67
2022/12/14 14:00:58;;;;;;;47.40;31.10;;;;;;;-8.18;81.98;98609.79;435642;1290;143185;-66
2022/12/14 14:11:55;;;;;;;43.50;30.10;;;;;;;-8.34;82.44;98602.38;436375;1287;142332;-66
2022/12/14 14:22:19;;;;;;;43.60;30.40;;;;;;;-8.52;83.00;98594.30;435949;1283;142421;-66
2022/12/14 14:32:39;;;;;;;47.60;32.50;;;;;;;-8.68;83.74;98586.89;436324;1277;143101;-66
2022/12/14 14:42:53;;;;;;;50.00;34.50;;;;;;;-8.71;84.69;98568.75;427053;1282;147519;-66
2022/12/14 14:53:12;;;;;;;47.50;32.70;;;;;;;-8.66;85.04;98536.50;436359;1287;142557;-66
2022/12/14 15:03:21;;;;;;;45.60;31.50;;;;;;;-8.51;85.82;98513.52;435591;1284;143044;-66
2022/12/14 15:13:32;;;;;;;46.80;30.30;;;;;;;-8.30;86.36;98502.70;436199;1278;144612;-68
2022/12/14 15:23:42;;;;;;;40.30;28.70;;;;;;;-8.12;86.59;98502.09;436257;1285;143597;-67
2022/12/14 15:33:48;;;;;;;47.20;31.40;;;;;;;-7.94;86.92;98500.45;435390;1287;143528;-66
2022/12/14 15:43:54;;;;;;;50.20;34.90;;;;;;;-7.82;87.07;98491.70;436104;1287;145143;-65
2022/12/14 15:54:07;;;;;;;57.20;37.20;;;;;;;-7.68;87.30;98469.34;435508;1283;144886;-68
2022/12/14 16:04:34;;;;;;;44.60;33.00;;;;;;;-7.53;87.61;98460.71;436198;1280;143835;-68
2022/12/14 16:14:59;;;;;;;43.40;31.40;;;;;;;-7.37;87.98;98437.61;435549;1281;144861;-67
2022/12/14 16:25:18;;;;;;;43.60;33.00;;;;;;;-7.24;88.15;98414.51;436276;1285;143572;-66
2022/12/14 16:35:25;;;;;;;40.60;32.40;;;;;;;-7.11;88.23;98396.52;436200;1273;143537;-66
2022/12/14 16:46:07;;;;;;;37.00;25.90;;;;;;;-6.97;88.37;98393.29;435482;1282;144134;-66
2022/12/14 16:56:18;;;;;;;34.80;26.10;;;;;;;-6.85;88.36;98379.19;436177;1280;143918;-67
2022/12/14 17:06:29;;;;;;;37.20;25.60;;;;;;;-6.76;88.28;98378.39;435511;1282;145474;-67
2022/12/14 17:16:35;;;;;;;43.10;29.10;;;;;;;-6.68;88.23;98372.16;436355;1282;143655;-67
2022/12/14 17:26:41;;;;;;;43.60;29.50;;;;;;;-6.65;88.27;98366.83;436348;1287;142034;-67
2022/12/14 17:36:47;;;;;;;37.60;27.50;;;;;;;-6.63;88.34;98368.67;435616;1282;143931;-67
2022/12/14 17:46:52;;;;;;;40.20;26.30;;;;;;;-6.76;87.70;98359.16;436367;1282;143240;-66
2022/12/14 17:57:20;;;;;;;44.80;30.00;;;;;;;-6.95;87.62;98349.36;435611;1283;146137;-70
2022/12/14 18:07:25;;;;;;;43.90;32.10;;;;;;;-7.07;87.51;98328.77;434026;1279;142943;-67
2022/12/14 18:17:31;;;;;;;47.90;33.40;;;;;;;-7.21;87.72;98333.35;436313;1273;143122;-66
2022/12/14 18:27:36;;;;;;;50.40;33.50;;;;;;;-7.24;87.78;98329.84;435642;1281;143478;-67
2022/12/14 18:37:42;;;;;;;51.60;34.70;;;;;;;-7.20;88.02;98331.81;436217;1282;144280;-65
2022/12/14 18:47:54;;;;;;;49.10;34.30;;;;;;;-7.16;87.99;98328.36;431249;1282;144212;-66
2022/12/14 18:58:02;;;;;;;53.90;35.00;;;;;;;-7.12;88.23;98328.66;435669;1287;198356;-67
2022/12/14 19:08:08;;;;;;;48.70;36.70;;;;;;;-7.05;88.57;98312.58;433130;1281;143302;-67
2022/12/14 19:18:15;;;;;;;56.30;37.80;;;;;;;-7.03;89.03;98300.14;435397;1275;145344;-66
2022/12/14 19:28:43;;;;;;;58.20;38.60;;;;;;;-7.01;89.36;98275.77;436153;1283;143470;-66
2022/12/14 19:38:48;;;;;;;63.10;39.20;;;;;;;-6.97;89.66;98262.45;436037;1280;188148;-66
2022/12/14 19:48:58;;;;;;;51.90;36.60;;;;;;;-6.91;89.88;98252.83;435301;1275;143452;-67
2022/12/14 19:59:04;;;;;;;52.70;34.80;;;;;;;-6.82;90.05;98258.83;436009;1275;158005;-67
2022/12/14 20:09:12;;;;;;;49.90;32.90;;;;;;;-6.70;90.32;98242.81;435374;1274;144009;-67
2022/12/14 20:19:20;;;;;;;49.60;33.40;;;;;;;-6.63;90.31;98234.70;436070;1274;143137;-69
2022/12/14 20:29:44;;;;;;;51.90;33.00;;;;;;;-6.56;90.38;98222.84;428762;1274;143082;-68
2022/12/14 20:39:50;;;;;;;46.10;32.20;;;;;;;-6.51;90.37;98214.59;435141;1282;144165;-69
2022/12/14 20:49:56;;;;;;;45.40;32.10;;;;;;;-6.46;90.36;98210.77;428248;1279;142003;-69
2022/12/14 21:00:02;;;;;;;52.20;33.00;;;;;;;-6.39;90.71;98206.90;435352;1277;143830;-68
2022/12/14 21:10:09;;;;;;;48.50;32.30;;;;;;;-6.33;90.79;98199.12;435992;1274;188009;-69
2022/12/14 21:20:15;;;;;;;46.80;30.50;;;;;;;-6.30;90.65;98183.92;436059;1289;143192;-68
2022/12/14 21:30:21;;;;;;;49.70;33.00;;;;;;;-6.28;90.72;98183.36;435435;1275;197655;-68
2022/12/14 21:50:49;;;;;;;50.70;33.40;;;;;;;-6.38;90.82;98160.91;436204;1282;143667;-69
2022/12/14 22:00:55;;;;;;;47.90;30.60;;;;;;;-6.38;90.84;98169.59;428312;1278;144156;-69
2022/12/14 22:11:04;;;;;;;49.70;30.50;;;;;;;-6.37;90.98;98163.08;427899;1281;142395;-69
2022/12/14 22:21:10;;;;;;;50.70;35.00;;;;;;;-6.30;90.92;98161.27;435420;1274;144087;-68
2022/12/14 22:31:16;;;;;;;49.00;33.20;;;;;;;-6.22;91.14;98149.86;429421;1276;143197;-68
2022/12/14 22:41:22;;;;;;;52.30;31.10;;;;;;;-6.15;91.04;98144.62;433728;1281;143782;-69
2022/12/14 22:51:29;;;;;;;49.50;32.90;;;;;;;-6.13;90.92;98139.65;435369;1276;143281;-67
2022/12/14 23:01:35;;;;;;;50.00;31.50;;;;;;;-6.08;91.00;98136.84;436188;1280;144356;-69
